Aérodrome :
LOGIN :

S'inscrire | Disclaimer

   EN    FR    IT 

 










Légende :    VFR   VFR Marginal   IFR   IFR Intensif   IFR Très Intensif
Visi : 
Plafond : 
>= 8 km
>= 3000ft
5 à 8 km
1000 à 3000 ft
1500m à 5 km
500 à 1000 ft
800 à 1500m
200 à 500 ft
< 800m
< 200 ft
Symboles :   Orages  Brouillard  Fortes neiges  Fortes précipitations  Vent > 20 kt
SIGMETs :   Divers  Orages  Givrage  Turbulence  Onde Orograph.  Cendres Volcan.






- Altitude de l'aérodrome : 236 ft
- Code IATA : MMX


ESMS - Malmö Sturup

DERNIER METAR :
  • 140250Z 24014KT 9999 SCT026 15/12 Q1005

METARs EXPIRÉS :
  • 140220Z 25018KT 9999 FEW013 SCT030 15/12 Q1005
  • 140150Z 24013KT 9999 FEW015 BKN019 16/14 Q1005
  • 140120Z 23015KT 9999 BKN021 16/14 Q1004
  • 140050Z 23015KT 9999 FEW020 BKN028 16/14 Q1004
  • 140020Z 23014KT 9999 BKN020 17/15 Q1004

TAF TAF ESMS
Valide du 14 à 00h jusqu'au 15 à 00h UTC


132311Z 1400/1424 24018KT 9999 BKN020
TEMPO 1400/1409 25018G32KT
BECMG 1414/1416 31005KT



MET'MAP, la Météo Aéronautique d'un coup d'oeil ! - Copyright ORBIFLY Décembre 2007 - Disclaimer

ORBIFLY MET'MAP TEAM :

Programmation & Développement : Alexandra Zaïnal
Conception & Développement : Baudouin d'Aumeries
Co-Programmation & Développement : Marc-Olivier Méhu
Soutien technique & logistique : Manuel Goepfert

Contact : metmap@orbifly.com




SOURCES & CREDITS :

   NOAA